Time;durP1;ratioP1;P1;durP2;ratioP2;P2;SDS_P1;SDS_P2;PMS_P1;PMS_P2;Temp;Humidity;BMP_temperature;BMP_pressure;BME280_temperature;BME280_humidity;BME280_pressure;Samples;Min_cycle;Max_cycle;Signal;HPM_P1;HPM_P2
2022/04/17 00:01:05;;;;;;;8.90;5.50;;;7.10;23.20;;;;;;5073421;28;20628;-60
2022/04/17 00:03:32;;;;;;;8.67;5.60;;;7.20;24.90;;;;;;5073403;28;20212;-61
2022/04/17 00:05:58;;;;;;;7.70;5.00;;;7.20;26.10;;;;;;5072853;28;20209;-61
2022/04/17 00:08:25;;;;;;;6.20;4.60;;;7.20;25.90;;;;;;5072993;28;20282;-60
2022/04/17 00:10:52;;;;;;;8.27;5.03;;;7.20;24.80;;;;;;5072973;28;20209;-61
2022/04/17 00:13:21;;;;;;;7.40;4.90;;;7.10;27.00;;;;;;5073119;28;20229;-61
2022/04/17 00:15:47;;;;;;;7.13;4.73;;;7.10;37.70;;;;;;5072933;28;20258;-60
2022/04/17 00:18:15;;;;;;;7.93;5.20;;;7.10;24.30;;;;;;5072687;28;20225;-61
2022/04/17 00:20:43;;;;;;;7.93;5.10;;;7.00;23.30;;;;;;5072909;28;20204;-61
2022/04/17 00:23:09;;;;;;;6.97;5.17;;;7.00;24.10;;;;;;5072519;28;20435;-61
2022/04/17 00:25:36;;;;;;;5.93;4.67;;;7.00;36.10;;;;;;5072475;28;20629;-60
2022/04/17 00:28:04;;;;;;;7.50;5.00;;;7.00;22.50;;;;;;5072431;28;20646;-61
2022/04/17 00:30:31;;;;;;;9.80;5.23;;;7.00;22.80;;;;;;5072881;28;20226;-61
2022/04/17 00:32:58;;;;;;;9.80;5.07;;;7.10;23.40;;;;;;5072452;28;20207;-61
2022/04/17 00:35:26;;;;;;;7.40;4.93;;;7.10;23.60;;;;;;5072711;28;20240;-61
2022/04/17 00:37:52;;;;;;;6.03;4.50;;;7.10;23.60;;;;;;5071821;28;20232;-61
2022/04/17 00:40:19;;;;;;;8.73;5.20;;;7.00;23.30;;;;;;5072211;28;20269;-61
2022/04/17 00:42:46;;;;;;;7.00;4.33;;;7.00;24.80;;;;;;5072373;28;20205;-60
2022/04/17 00:45:14;;;;;;;7.63;5.20;;;7.00;24.30;;;;;;5072289;28;20301;-61
2022/04/17 00:47:41;;;;;;;7.27;4.70;;;7.00;23.50;;;;;;5071946;28;20227;-61
2022/04/17 00:50:08;;;;;;;7.43;5.17;;;7.00;23.40;;;;;;5072207;28;20360;-61
2022/04/17 00:52:37;;;;;;;8.57;5.27;;;6.90;24.50;;;;;;5071988;28;20211;-61
2022/04/17 00:55:05;;;;;;;7.90;5.10;;;6.90;26.30;;;;;;5072098;28;20216;-61
2022/04/17 00:57:32;;;;;;;10.00;5.00;;;6.80;27.50;;;;;;5071835;28;20669;-62
2022/04/17 01:00:00;;;;;;;8.17;5.37;;;6.80;23.10;;;;;;5072145;28;20212;-61
2022/04/17 01:02:26;;;;;;;11.53;5.40;;;6.70;22.20;;;;;;5072002;28;20668;-60
2022/04/17 01:04:53;;;;;;;7.63;5.47;;;6.70;22.80;;;;;;5072422;28;20266;-61
2022/04/17 01:07:22;;;;;;;7.67;4.67;;;6.70;22.40;;;;;;5072406;28;20215;-61
2022/04/17 01:09:51;;;;;;;6.20;4.80;;;6.60;22.40;;;;;;5072847;28;20214;-61
2022/04/17 01:12:18;;;;;;;6.80;4.90;;;6.60;22.60;;;;;;5071924;28;20319;-61
2022/04/17 01:14:45;;;;;;;8.53;4.87;;;6.50;22.30;;;;;;5071996;28;20692;-61
2022/04/17 01:17:12;;;;;;;7.13;4.80;;;6.50;22.50;;;;;;5071506;28;20268;-61
2022/04/17 01:19:40;;;;;;;7.20;4.37;;;6.50;22.40;;;;;;5071842;28;20203;-61
2022/04/17 01:22:09;;;;;;;8.00;5.00;;;6.50;26.70;;;;;;5071679;28;20215;-60
2022/04/17 01:27:20;;;;;;;5.40;4.30;;;6.30;21.90;;;;;;5071159;28;20669;-61
2022/04/17 01:29:48;;;;;;;7.27;4.80;;;6.30;21.90;;;;;;5071398;28;20291;-61
2022/04/17 01:32:15;;;;;;;5.53;4.50;;;6.20;21.80;;;;;;5071266;28;20213;-61
2022/04/17 01:34:42;;;;;;;6.63;5.03;;;6.10;21.80;;;;;;5071560;28;20756;-61
2022/04/17 01:37:11;;;;;;;6.53;4.37;;;6.00;23.20;;;;;;5071181;28;20204;-60
2022/04/17 01:39:38;;;;;;;8.50;5.03;;;6.00;23.70;;;;;;5071679;28;20254;-60
2022/04/17 01:42:05;;;;;;;8.57;5.23;;;6.00;23.80;;;;;;5071290;28;20268;-61
2022/04/17 01:44:32;;;;;;;7.93;4.70;;;6.00;23.10;;;;;;5071396;28;20274;-61
2022/04/17 01:47:01;;;;;;;8.77;5.00;;;5.90;23.00;;;;;;5070548;28;20209;-61
2022/04/17 01:49:27;;;;;;;7.20;4.77;;;5.80;22.00;;;;;;5071219;28;20775;-61
2022/04/17 01:51:55;;;;;;;6.70;4.70;;;5.80;21.40;;;;;;5071094;28;20570;-60
2022/04/17 01:54:25;;;;;;;8.97;4.70;;;5.70;21.60;;;;;;5071257;28;20737;-61
2022/04/17 01:56:52;;;;;;;6.40;4.70;;;5.70;22.60;;;;;;5070888;28;20210;-61
2022/04/17 01:59:20;;;;;;;5.53;4.10;;;5.70;22.10;;;;;;5071083;28;20374;-61
2022/04/17 02:01:48;;;;;;;7.70;5.10;;;5.70;21.30;;;;;;5071576;28;20280;-61
2022/04/17 02:04:15;;;;;;;6.50;4.10;;;5.70;22.80;;;;;;5072092;28;20287;-61
2022/04/17 02:06:42;;;;;;;6.47;4.40;;;5.70;22.40;;;;;;5075168;28;20883;-61
2022/04/17 02:09:11;;;;;;;7.87;4.67;;;5.80;22.10;;;;;;5075104;28;20228;-61
2022/04/17 02:11:40;;;;;;;8.53;4.43;;;5.80;23.50;;;;;;5075325;28;20213;-61
2022/04/17 02:14:07;;;;;;;6.70;4.50;;;5.90;24.20;;;;;;5075055;28;20208;-61
2022/04/17 02:16:34;;;;;;;6.30;4.77;;;5.90;24.60;;;;;;5075136;28;20205;-61
2022/04/17 02:19:01;;;;;;;6.37;4.37;;;5.90;24.40;;;;;;5075209;28;20228;-61
2022/04/17 02:21:28;;;;;;;7.27;4.93;;;6.00;25.00;;;;;;5075121;28;20217;-61
2022/04/17 02:23:55;;;;;;;5.27;4.07;;;6.00;24.40;;;;;;5075258;28;20296;-61
2022/04/17 02:26:22;;;;;;;5.13;3.73;;;6.10;26.00;;;;;;5074735;28;20264;-61
2022/04/17 02:28:50;;;;;;;6.33;4.40;;;6.10;25.80;;;;;;5074995;28;20295;-61
2022/04/17 02:31:18;;;;;;;7.67;4.30;;;6.30;26.10;;;;;;5074875;28;20205;-60
2022/04/17 02:33:45;;;;;;;5.60;4.47;;;6.30;25.80;;;;;;5074876;28;20276;-61
2022/04/17 02:36:12;;;;;;;5.90;4.00;;;6.30;26.30;;;;;;5074350;28;20211;-61
2022/04/17 02:38:38;;;;;;;5.40;4.20;;;6.30;25.90;;;;;;5074648;28;20221;-61
2022/04/17 02:41:05;;;;;;;4.97;3.97;;;6.30;26.90;;;;;;5074516;28;20206;-61
2022/04/17 02:43:32;;;;;;;7.60;4.23;;;6.30;26.20;;;;;;5074680;28;20210;-61
2022/04/17 02:46:00;;;;;;;5.87;3.67;;;6.30;26.70;;;;;;5074271;28;20892;-61
2022/04/17 02:48:26;;;;;;;5.83;4.20;;;6.30;26.20;;;;;;5074298;28;20225;-61
2022/04/17 02:50:52;;;;;;;6.37;4.07;;;6.30;26.20;;;;;;5074583;28;20741;-61
2022/04/17 02:53:20;;;;;;;6.57;4.40;;;6.30;40.90;;;;;;5074489;28;20262;-60
2022/04/17 02:55:47;;;;;;;6.87;4.20;;;6.20;26.80;;;;;;5074028;28;20221;-61
2022/04/17 02:58:14;;;;;;;4.57;3.73;;;6.30;26.80;;;;;;5074191;28;20225;-61
2022/04/17 03:06:09;;;;;;;5.27;3.93;;;6.20;26.80;;;;;;5073492;28;20210;-61
2022/04/17 03:08:35;;;;;;;6.10;4.43;;;6.10;27.50;;;;;;5074238;28;20245;-60
2022/04/17 03:11:02;;;;;;;5.80;3.93;;;6.10;27.60;;;;;;5074157;28;20218;-61
2022/04/17 03:13:29;;;;;;;6.17;3.63;;;6.10;27.30;;;;;;5074338;28;20204;-61
2022/04/17 03:15:56;;;;;;;5.53;3.33;;;6.10;28.00;;;;;;5073625;28;20209;-60
2022/04/17 03:18:24;;;;;;;4.77;3.43;;;6.10;27.80;;;;;;5073815;28;20230;-61
2022/04/17 03:20:51;;;;;;;5.83;3.60;;;6.00;28.40;;;;;;5073984;28;20497;-61
2022/04/17 03:23:18;;;;;;;6.37;4.03;;;6.00;27.90;;;;;;5073957;28;20211;-61
2022/04/17 03:25:45;;;;;;;6.07;3.30;;;6.00;27.80;;;;;;5073939;28;20205;-61
2022/04/17 03:28:11;;;;;;;4.40;3.77;;;6.00;28.50;;;;;;5073290;28;20225;-61
2022/04/17 03:30:38;;;;;;;3.93;3.23;;;6.00;28.30;;;;;;5073869;28;20202;-61
2022/04/17 03:33:05;;;;;;;5.83;3.83;;;6.00;29.10;;;;;;5073479;28;20557;-61
2022/04/17 03:35:33;;;;;;;5.40;3.57;;;6.00;28.80;;;;;;5073812;28;20266;-61
2022/04/17 03:38:00;;;;;;;4.93;3.77;;;6.00;27.90;;;;;;5073332;28;20229;-61
2022/04/17 03:40:26;;;;;;;6.23;3.60;;;6.00;29.20;;;;;;5073414;28;20207;-60
2022/04/17 03:42:53;;;;;;;5.87;3.97;;;6.00;29.30;;;;;;5073554;28;20214;-61
2022/04/17 03:45:20;;;;;;;6.47;4.13;;;5.90;30.20;;;;;;5073262;28;20205;-61
2022/04/17 03:47:46;;;;;;;5.40;3.70;;;5.90;30.00;;;;;;5072953;28;20226;-61
2022/04/17 03:50:13;;;;;;;5.30;3.77;;;5.90;44.70;;;;;;5073596;28;20229;-61
2022/04/17 03:52:42;;;;;;;5.83;3.87;;;6.00;30.70;;;;;;5073284;28;20287;-61
2022/04/17 03:55:11;;;;;;;6.80;3.83;;;5.90;30.20;;;;;;5073395;28;20264;-61
2022/04/17 03:57:37;;;;;;;5.60;3.67;;;5.90;31.20;;;;;;5072906;28;20225;-61
2022/04/17 04:00:07;;;;;;;5.10;3.73;;;5.90;31.00;;;;;;5073362;28;20578;-61
2022/04/17 04:02:34;;;;;;;5.37;3.53;;;5.80;31.20;;;;;;5073393;28;20211;-61
2022/04/17 04:05:00;;;;;;;6.80;3.77;;;5.80;31.20;;;;;;5073418;28;20230;-61
2022/04/17 04:07:28;;;;;;;5.73;3.63;;;5.80;32.90;;;;;;5072730;28;20583;-61
2022/04/17 04:09:56;;;;;;;4.77;3.40;;;5.80;32.10;;;;;;5072858;28;20594;-61
2022/04/17 04:12:22;;;;;;;4.37;3.53;;;5.80;32.20;;;;;;5073104;28;20563;-61
2022/04/17 04:14:49;;;;;;;4.33;3.37;;;5.80;33.20;;;;;;5072662;28;20224;-60
2022/04/17 04:17:16;;;;;;;4.07;3.63;;;5.80;34.20;;;;;;5072659;28;20292;-61
2022/04/17 04:19:43;;;;;;;4.10;3.37;;;5.70;34.20;;;;;;5072761;28;20923;-61
2022/04/17 04:22:09;;;;;;;4.27;3.70;;;5.70;35.20;;;;;;5072839;28;20214;-61
2022/04/17 04:24:36;;;;;;;4.27;3.37;;;5.70;36.40;;;;;;5072824;28;20603;-61
2022/04/17 04:30:00;;;;;;;5.50;3.40;;;5.60;35.90;;;;;;5010522;28;20280;-61
2022/04/17 04:32:28;;;;;;;4.73;3.53;;;5.60;36.90;;;;;;5057310;28;20254;-61
2022/04/17 04:34:59;;;;;;;8.03;3.97;;;5.60;36.90;;;;;;5072507;28;20676;-61
2022/04/17 04:37:26;;;;;;;4.53;3.07;;;5.60;37.50;;;;;;5072057;28;20320;-61
2022/04/17 04:39:53;;;;;;;3.83;3.40;;;5.60;39.00;;;;;;5072311;28;20205;-61
2022/04/17 04:42:21;;;;;;;4.33;3.10;;;5.60;38.30;;;;;;5072559;28;20583;-60
2022/04/17 04:46:06;;;;;;;5.77;3.40;;;5.60;38.10;;;;;;5072668;28;20650;-61
2022/04/17 04:47:34;;;;;;;5.87;2.87;;;5.60;39.80;;;;;;5071713;28;20229;-61
2022/04/17 04:50:01;;;;;;;8.57;3.77;;;5.70;39.30;;;;;;5072203;28;20228;-61
2022/04/17 04:52:28;;;;;;;5.27;3.57;;;5.60;39.30;;;;;;5072211;28;20540;-61
2022/04/17 04:54:55;;;;;;;4.47;3.50;;;5.70;40.40;;;;;;5072118;28;20291;-61
2022/04/17 04:57:23;;;;;;;6.10;3.43;;;5.70;40.80;;;;;;5071884;28;20205;-61
2022/04/17 04:59:50;;;;;;;5.53;3.30;;;5.70;40.00;;;;;;5072057;28;20250;-61
2022/04/17 05:02:17;;;;;;;3.93;3.27;;;5.70;40.70;;;;;;5072024;28;20262;-60
2022/04/17 05:04:44;;;;;;;5.60;3.33;;;5.80;41.50;;;;;;5071564;28;20216;-61
2022/04/17 05:07:10;;;;;;;3.57;3.03;;;5.80;41.20;;;;;;5071658;28;20456;-60
2022/04/17 05:09:37;;;;;;;3.83;3.13;;;5.80;40.30;;;;;;5071975;28;20226;-61
2022/04/17 05:12:05;;;;;;;5.23;3.10;;;5.90;41.60;;;;;;5071968;28;20211;-61
2022/04/17 05:14:33;;;;;;;4.07;2.90;;;6.00;42.40;;;;;;5072474;28;20209;-61
2022/04/17 05:16:59;;;;;;;3.87;2.63;;;6.00;41.10;;;;;;5072071;28;20274;-61
2022/04/17 05:19:27;;;;;;;2.97;2.67;;;6.00;41.40;;;;;;5072097;28;20626;-61
2022/04/17 05:21:58;;;;;;;5.20;3.27;;;6.10;42.50;;;;;;5071813;28;20210;-61
2022/04/17 05:24:25;;;;;;;7.47;2.90;;;6.10;42.70;;;;;;5071923;28;20209;-61
2022/04/17 05:26:52;;;;;;;4.17;2.67;;;6.20;41.50;;;;;;5071411;28;20262;-61
2022/04/17 05:29:19;;;;;;;4.37;3.07;;;6.30;44.10;;;;;;5071350;28;20321;-60
2022/04/17 05:31:47;;;;;;;3.93;2.57;;;6.40;41.60;;;;;;5071596;28;20212;-61
2022/04/17 05:34:14;;;;;;;3.33;2.50;;;6.40;43.20;;;;;;5071494;28;20294;-61
2022/04/17 05:36:41;;;;;;;4.07;2.60;;;6.50;43.90;;;;;;5071402;28;20629;-60
2022/04/17 05:39:08;;;;;;;4.03;2.60;;;6.60;44.60;;;;;;5070504;28;20273;-61
2022/04/17 05:41:34;;;;;;;5.20;2.83;;;6.60;45.00;;;;;;5071436;28;20779;-61
2022/04/17 05:44:02;;;;;;;6.87;2.70;;;6.70;45.80;;;;;;5071474;28;20264;-60
2022/04/17 05:46:30;;;;;;;3.53;2.87;;;6.70;43.50;;;;;;5070736;28;20214;-62
2022/04/17 05:48:59;;;;;;;3.87;2.40;;;6.80;45.20;;;;;;5071796;28;20234;-61
2022/04/17 05:51:26;;;;;;;3.57;2.53;;;6.90;49.10;;;;;;5071507;28;20258;-61
2022/04/17 05:53:53;;;;;;;4.00;2.63;;;6.90;46.50;;;;;;5071166;28;20623;-62
2022/04/17 05:56:20;;;;;;;4.17;2.43;;;6.90;45.90;;;;;;5070982;28;20212;-62
2022/04/17 05:58:46;;;;;;;4.67;2.60;;;7.00;46.20;;;;;;5071270;28;20717;-61
2022/04/17 06:01:14;;;;;;;3.33;2.10;;;7.10;47.50;;;;;;5071160;28;20666;-62
2022/04/17 06:03:41;;;;;;;3.40;2.50;;;7.20;48.00;;;;;;5071457;28;20204;-61
2022/04/17 06:06:09;;;;;;;4.20;2.50;;;7.30;48.70;;;;;;5071041;28;20216;-62
2022/04/17 06:08:35;;;;;;;4.77;2.20;;;7.40;47.70;;;;;;5071253;28;20235;-62
2022/04/17 06:11:02;;;;;;;3.33;2.17;;;7.50;46.30;;;;;;5071356;28;20223;-61
2022/04/17 06:13:29;;;;;;;2.50;1.90;;;7.50;64.00;;;;;;5071293;28;20215;-62
2022/04/17 06:15:56;;;;;;;5.07;2.23;;;7.70;48.10;;;;;;5071126;28;20212;-61
2022/04/17 06:18:22;;;;;;;3.77;2.50;;;7.80;48.50;;;;;;5071232;28;20228;-61
2022/04/17 06:20:49;;;;;;;3.97;2.10;;;7.90;50.70;;;;;;5071152;28;20208;-61
2022/04/17 06:23:17;;;;;;;3.13;2.33;;;8.00;51.10;;;;;;5071087;28;20294;-61
2022/04/17 06:25:44;;;;;;;3.97;2.10;;;8.10;51.40;;;;;;5071234;28;20331;-61
2022/04/17 06:28:11;;;;;;;2.73;2.03;;;8.20;50.80;;;;;;5070922;28;20225;-61
2022/04/17 06:30:38;;;;;;;4.07;2.30;;;8.30;68.70;;;;;;5071316;28;20229;-61
2022/04/17 06:33:05;;;;;;;4.00;2.67;;;8.40;52.60;;;;;;5071208;28;20239;-61
2022/04/17 06:35:31;;;;;;;5.00;2.37;;;8.60;53.90;;;;;;5071000;28;20235;-61
2022/04/17 06:37:59;;;;;;;4.10;2.60;;;8.70;53.90;;;;;;5070724;28;20711;-62
2022/04/17 06:40:29;;;;;;;4.73;2.17;;;8.70;54.60;;;;;;5071065;28;20616;-61
2022/04/17 06:42:57;;;;;;;3.23;2.27;;;8.80;56.70;;;;;;5070896;28;20208;-61
2022/04/17 06:45:24;;;;;;;2.97;2.13;;;8.90;55.90;;;;;;5071228;28;20209;-61
2022/04/17 06:47:51;;;;;;;5.43;2.63;;;9.00;55.70;;;;;;5070509;28;20229;-61
2022/04/17 06:50:19;;;;;;;4.63;2.40;;;9.10;55.70;;;;;;5071887;28;20224;-61
2022/04/17 06:52:46;;;;;;;4.23;2.27;;;9.20;57.70;;;;;;5074651;28;20212;-62
2022/04/17 06:55:13;;;;;;;4.53;2.50;;;9.30;57.10;;;;;;5074562;28;20216;-62
2022/04/17 06:57:46;;;;;;;3.20;2.67;;;9.40;59.70;;;;;;5074675;28;20230;-61
2022/04/17 07:00:15;;;;;;;3.97;2.70;;;9.50;57.70;;;;;;5074383;28;20669;-61
2022/04/17 07:02:44;;;;;;;4.10;2.60;;;9.70;59.40;;;;;;5074977;28;20210;-60
2022/04/17 07:05:12;;;;;;;4.00;2.23;;;9.70;59.40;;;;;;5074167;28;20691;-60
2022/04/17 07:07:38;;;;;;;3.47;2.20;;;9.80;59.10;;;;;;5074145;28;20234;-60
2022/04/17 07:10:06;;;;;;;3.17;2.33;;;9.90;58.90;;;;;;5074279;28;20223;-60
2022/04/17 07:12:34;;;;;;;3.03;2.10;;;10.00;59.90;;;;;;5074531;28;20206;-60
2022/04/17 07:15:03;;;;;;;4.57;2.43;;;10.20;64.70;;;;;;5074603;28;20240;-60
2022/04/17 07:17:34;;;;;;;3.80;2.43;;;10.30;62.70;;;;;;5074346;28;20235;-60
2022/04/17 07:20:01;;;;;;;4.17;2.10;;;10.40;63.10;;;;;;5074502;28;20237;-61
2022/04/17 07:22:28;;;;;;;4.17;1.90;;;10.60;64.30;;;;;;5074143;28;20293;-60
2022/04/17 07:24:57;;;;;;;3.57;2.63;;;10.70;64.80;;;;;;5074468;28;20207;-60
2022/04/17 07:27:25;;;;;;;4.83;2.60;;;10.70;63.00;;;;;;5074146;28;20238;-60
2022/04/17 07:29:52;;;;;;;5.90;2.43;;;10.80;64.60;;;;;;5074938;28;20231;-62
2022/04/17 07:32:20;;;;;;;3.40;2.33;;;10.90;68.00;;;;;;5073951;28;20673;-60
2022/04/17 07:34:48;;;;;;;4.00;2.40;;;11.00;65.80;;;;;;5073919;28;20218;-60
2022/04/17 07:37:25;;;;;;;5.23;2.40;;;11.10;66.80;;;;;;5073768;28;20262;-60
2022/04/17 07:39:52;;;;;;;3.97;2.37;;;10.90;64.20;;;;;;5074286;28;20620;-60
2022/04/17 07:42:20;;;;;;;2.50;2.10;;;11.20;68.90;;;;;;5073913;28;20207;-60
2022/04/17 07:44:47;;;;;;;3.80;2.30;;;11.40;67.70;;;;;;5074261;28;20259;-60
2022/04/17 07:47:14;;;;;;;4.37;2.50;;;11.50;70.10;;;;;;5052188;28;20224;-60
2022/04/17 07:49:42;;;;;;;3.27;1.90;;;11.60;71.10;;;;;;5053199;28;20275;-65
2022/04/17 07:52:10;;;;;;;4.37;2.30;;;11.50;68.70;;;;;;5054275;28;20217;-65
2022/04/17 07:54:36;;;;;;;2.70;2.27;;;11.50;69.00;;;;;;5052880;28;20680;-64
2022/04/17 07:57:04;;;;;;;4.37;2.37;;;11.60;90.40;;;;;;5052946;28;20247;-62
2022/04/17 07:59:30;;;;;;;2.97;2.00;;;11.80;73.70;;;;;;5053663;28;20219;-63
2022/04/17 08:02:01;;;;;;;2.50;1.90;;;11.90;74.00;;;;;;5052353;28;20202;-61
2022/04/17 08:04:28;;;;;;;3.53;2.10;;;12.00;73.10;;;;;;5053493;28;20252;-63
2022/04/17 08:06:56;;;;;;;4.37;2.23;;;12.10;75.50;;;;;;5052742;28;20214;-62
2022/04/17 08:09:23;;;;;;;3.57;2.30;;;12.20;74.90;;;;;;5052807;28;20718;-62
2022/04/17 08:11:51;;;;;;;4.10;2.30;;;12.10;73.80;;;;;;5053438;28;20252;-63
2022/04/17 08:14:18;;;;;;;4.03;2.30;;;12.10;75.40;;;;;;5052836;28;20306;-62
2022/04/17 08:16:45;;;;;;;3.23;1.97;;;12.30;76.90;;;;;;5052917;28;20205;-63
2022/04/17 08:19:12;;;;;;;5.90;2.63;;;12.50;79.50;;;;;;5052742;28;20283;-63
2022/04/17 08:21:40;;;;;;;5.37;2.17;;;12.60;80.50;;;;;;5052976;28;20672;-63
2022/04/17 08:24:08;;;;;;;2.10;1.90;;;12.60;79.90;;;;;;5053398;28;20631;-64
2022/04/17 08:26:35;;;;;;;3.40;2.00;;;12.70;81.00;;;;;;5052226;28;20271;-64
2022/04/17 08:29:02;;;;;;;2.47;2.10;;;12.90;82.70;;;;;;5052203;28;20233;-64
2022/04/17 08:31:28;;;;;;;4.53;2.20;;;13.00;82.70;;;;;;5052645;28;20227;-63
2022/04/17 08:33:55;;;;;;;4.07;2.10;;;13.00;81.10;;;;;;5052764;28;20267;-63
2022/04/17 08:36:22;;;;;;;4.77;2.27;;;13.00;84.90;;;;;;5052309;28;20256;-62
2022/04/17 08:38:48;;;;;;;2.30;1.80;;;13.00;88.80;;;;;;5051516;28;20227;-63
2022/04/17 08:41:20;;;;;;;3.23;2.00;;;13.20;88.50;;;;;;5052348;28;20206;-65
2022/04/17 08:43:47;;;;;;;3.97;2.47;;;13.20;82.90;;;;;;5052683;28;20241;-66
2022/04/17 08:46:14;;;;;;;4.63;2.30;;;13.20;81.50;;;;;;5051999;28;20251;-63
2022/04/17 08:48:40;;;;;;;2.67;1.60;;;13.10;80.30;;;;;;5051628;28;20229;-62
2022/04/17 08:51:07;;;;;;;3.07;2.00;;;13.20;82.00;;;;;;5052167;28;20287;-62
2022/04/17 08:53:35;;;;;;;3.20;1.80;;;13.20;83.60;;;;;;5052093;28;20727;-63
2022/04/17 08:56:02;;;;;;;2.57;1.70;;;13.40;81.40;;;;;;5051576;28;20204;-61
2022/04/17 08:58:30;;;;;;;3.33;2.30;;;13.60;84.70;;;;;;5051904;28;20565;-63
2022/04/17 09:00:57;;;;;;;5.63;1.97;;;13.80;86.70;;;;;;5052195;28;20198;-63
2022/04/17 09:03:24;;;;;;;2.23;2.03;;;13.80;84.00;;;;;;5052011;28;20614;-60
2022/04/17 09:05:51;;;;;;;2.73;1.97;;;13.50;82.30;;;;;;5051652;28;20213;-63
2022/04/17 09:08:21;;;;;;;2.50;1.90;;;13.70;87.00;;;;;;5051508;28;20629;-63
2022/04/17 09:10:55;;;;;;;3.47;1.70;;;13.60;86.50;;;;;;5051643;28;20224;-63
2022/04/17 09:13:28;;;;;;;3.33;2.03;;;13.80;81.00;;;;;;5051828;28;20233;-67
2022/04/17 09:15:57;;;;;;;3.33;1.83;;;13.90;84.30;;;;;;5051742;28;20212;-68
2022/04/17 09:18:27;;;;;;;2.57;1.70;;;14.10;87.70;;;;;;5051797;28;20229;-69
2022/04/17 09:20:54;;;;;;;3.10;1.60;;;14.30;87.30;;;;;;5052074;28;20208;-63
2022/04/17 09:23:38;;;;;;;3.23;1.80;;;14.40;91.60;;;;;;5051482;28;20721;-63
2022/04/17 09:26:05;;;;;;;4.07;1.90;;;14.60;91.80;;;;;;5050972;28;20622;-63
2022/04/17 09:28:33;;;;;;;1.97;1.70;;;14.70;92.00;;;;;;5050954;28;20364;-65
2022/04/17 09:31:02;;;;;;;2.80;1.87;;;14.50;90.00;;;;;;5051507;28;20232;-65
2022/04/17 09:33:39;;;;;;;3.03;1.73;;;14.50;90.60;;;;;;5050615;28;20210;-59
2022/04/17 09:36:06;;;;;;;3.87;1.73;;;14.60;89.70;;;;;;5051451;28;20216;-58
2022/04/17 09:38:34;;;;;;;2.90;1.70;;;14.30;82.90;;;;;;5051694;28;20295;-56
2022/04/17 09:41:07;;;;;;;6.17;1.53;;;14.40;84.60;;;;;;5052681;28;20205;-58
2022/04/17 09:43:35;;;;;;;2.53;1.40;;;14.40;83.50;;;;;;5052865;28;20217;-59
2022/04/17 09:46:04;;;;;;;1.77;1.43;;;14.50;85.40;;;;;;5051283;28;20341;-59
2022/04/17 09:48:33;;;;;;;2.60;1.67;;;14.60;83.00;;;;;;5051742;28;20236;-60
2022/04/17 09:51:01;;;;;;;1.60;1.37;;;14.70;83.90;;;;;;5051483;28;20226;-60
2022/04/17 09:53:36;;;;;;;2.23;1.40;;;14.80;82.30;;;;;;5051617;28;20257;-60
2022/04/17 09:56:08;;;;;;;1.87;1.50;;;14.70;78.80;;;;;;5051139;28;20201;-59
2022/04/17 09:58:37;;;;;;;3.60;1.50;;;14.90;85.30;;;;;;5051202;28;20580;-60
2022/04/17 10:01:06;;;;;;;2.40;1.50;;;14.70;76.60;;;;;;5051438;28;20295;-60
2022/04/17 10:03:36;;;;;;;1.57;1.30;;;14.90;82.20;;;;;;5051768;28;20618;-60
2022/04/17 10:06:03;;;;;;;1.90;1.37;;;15.10;87.40;;;;;;5050935;28;20201;-58
2022/04/17 10:08:32;;;;;;;2.63;1.70;;;15.30;87.10;;;;;;5051337;28;20287;-57
2022/04/17 10:11:00;;;;;;;2.00;1.30;;;15.40;88.30;;;;;;5050707;28;20222;-60
2022/04/17 10:13:27;;;;;;;1.93;1.50;;;15.50;91.60;;;;;;5051557;28;20208;-60
2022/04/17 10:15:59;;;;;;;3.23;1.87;;;15.50;91.70;;;;;;5051225;28;20209;-60
2022/04/17 10:18:32;;;;;;;2.00;1.57;;;15.70;99.90;;;;;;5051296;28;20225;-60
2022/04/17 10:21:00;;;;;;;2.27;1.73;;;15.80;91.20;;;;;;5051094;28;20210;-60
2022/04/17 10:23:28;;;;;;;1.60;1.50;;;15.90;91.40;;;;;;5051073;28;20249;-59
2022/04/17 10:25:58;;;;;;;2.23;1.80;;;15.80;90.70;;;;;;5053092;28;20201;-60
2022/04/17 10:28:28;;;;;;;2.07;1.70;;;15.60;87.70;;;;;;5055196;28;20233;-60
2022/04/17 10:31:11;;;;;;;3.13;1.73;;;15.50;86.30;;;;;;5055499;28;20469;-60
2022/04/17 10:34:05;;;;;;;5.37;1.97;;;15.30;85.40;;;;;;5053776;28;20212;-57
2022/04/17 10:36:46;;;;;;;2.50;1.80;;;15.30;81.70;;;;;;5072638;28;20212;-60
2022/04/17 10:39:16;;;;;;;1.87;1.60;;;15.50;92.70;;;;;;5074480;28;20572;-60
2022/04/17 10:41:43;;;;;;;2.00;1.40;;;15.40;85.10;;;;;;5073638;28;20255;-66
2022/04/17 10:44:10;;;;;;;2.67;1.73;;;15.40;86.20;;;;;;5074494;28;20205;-61
2022/04/17 10:46:48;;;;;;;1.77;1.20;;;15.50;92.10;;;;;;5073945;28;20209;-61
2022/04/17 10:49:19;;;;;;;2.43;1.67;;;15.80;83.70;;;;;;5074141;28;20229;-66
2022/04/17 10:51:54;;;;;;;2.53;1.37;;;16.00;95.40;;;;;;5074759;28;20225;-61
2022/04/17 10:54:20;;;;;;;2.40;1.43;;;16.00;90.80;;;;;;5074328;28;20254;-59
2022/04/17 10:57:01;;;;;;;3.07;1.60;;;15.80;85.50;;;;;;5073655;28;20235;-60
2022/04/17 10:59:30;;;;;;;1.50;1.30;;;15.70;86.00;;;;;;5074598;28;20311;-59
2022/04/17 11:02:02;;;;;;;3.13;1.20;;;16.00;86.00;;;;;;5074304;28;20755;-61
2022/04/17 11:04:32;;;;;;;3.17;1.30;;;16.20;85.80;;;;;;5074425;28;20209;-61
2022/04/17 11:07:22;;;;;;;2.50;1.33;;;16.40;87.20;;;;;;5073942;28;20247;-64
2022/04/17 11:10:04;;;;;;;2.83;1.30;;;16.50;88.90;;;;;;5074264;28;20696;-64
2022/04/17 11:12:30;;;;;;;8.83;3.03;;;16.70;90.00;;;;;;5074227;28;20284;-62
2022/04/17 11:15:18;;;;;;;5.37;1.63;;;16.80;91.20;;;;;;5074364;28;20205;-60
2022/04/17 11:17:46;;;;;;;2.70;2.00;;;16.80;88.10;;;;;;5073282;28;20236;-63
2022/04/17 11:20:15;;;;;;;5.37;1.70;;;16.60;82.10;;;;;;5074443;28;20295;-62
2022/04/17 11:22:42;;;;;;;1.50;1.10;;;16.70;90.10;;;;;;5073281;28;20216;-63
2022/04/17 11:25:11;;;;;;;2.13;1.10;;;16.90;88.70;;;;;;5074186;28;20258;-62
2022/04/17 11:27:41;;;;;;;2.13;1.00;;;16.90;84.70;;;;;;5073245;28;20229;-62
2022/04/17 11:30:29;;;;;;;2.33;1.40;;;17.10;85.70;;;;;;5074037;28;20212;-62
2022/04/17 11:32:56;;;;;;;2.13;1.10;;;17.00;86.80;;;;;;5074117;28;20262;-64
2022/04/17 11:35:25;;;;;;;2.07;0.93;;;17.00;86.50;;;;;;5073851;28;20235;-61
2022/04/17 11:37:54;;;;;;;1.63;1.27;;;16.90;80.80;;;;;;5072000;28;20221;-60
2022/04/17 11:40:23;;;;;;;2.03;1.20;;;16.80;82.40;;;;;;5073566;28;20577;-62
2022/04/17 11:42:52;;;;;;;3.10;1.43;;;16.70;78.30;;;;;;5073457;28;20227;-62
2022/04/17 11:45:20;;;;;;;6.07;1.80;;;16.70;81.70;;;;;;5073760;28;20212;-62
2022/04/17 11:47:49;;;;;;;5.00;1.80;;;16.70;82.70;;;;;;5072965;28;20225;-62
2022/04/17 11:50:22;;;;;;;3.23;2.23;;;16.90;86.80;;;;;;5073534;28;20208;-65
2022/04/17 11:52:54;;;;;;;2.37;1.10;;;17.00;84.70;;;;;;5073628;28;20213;-61
2022/04/17 11:55:25;;;;;;;1.97;1.03;;;16.60;72.90;;;;;;5074299;28;20677;-61
2022/04/17 11:57:52;;;;;;;2.27;1.30;;;16.60;78.60;;;;;;5072366;28;20763;-61
2022/04/17 12:00:19;;;;;;;2.30;1.27;;;16.80;77.80;;;;;;5073380;28;20204;-61
2022/04/17 12:02:45;;;;;;;2.77;1.50;;;17.00;84.10;;;;;;5072929;28;20205;-64
2022/04/17 12:05:13;;;;;;;2.90;1.00;;;17.10;78.30;;;;;;5073234;28;20205;-65
2022/04/17 12:07:43;;;;;;;1.30;1.10;;;17.40;84.80;;;;;;5072114;28;20250;-65
2022/04/17 12:10:13;;;;;;;1.73;1.10;;;17.50;91.60;;;;;;5073016;28;20296;-65
2022/04/17 12:12:45;;;;;;;3.60;1.30;;;17.60;90.60;;;;;;5073152;28;20663;-65
2022/04/17 12:15:13;;;;;;;2.27;1.20;;;17.50;90.20;;;;;;5072955;28;20212;-62
2022/04/17 12:17:41;;;;;;;2.47;1.10;;;17.50;90.80;;;;;;5072610;28;20228;-62
2022/04/17 12:20:09;;;;;;;2.13;1.40;;;17.70;90.00;;;;;;5072887;28;20209;-62
2022/04/17 12:22:36;;;;;;;2.03;1.30;;;17.90;91.80;;;;;;5072958;28;20675;-62
2022/04/17 12:25:04;;;;;;;1.87;1.50;;;18.00;90.60;;;;;;5072923;28;20292;-62
2022/04/17 12:27:32;;;;;;;3.00;1.33;;;17.90;90.50;;;;;;5072358;28;20225;-62
2022/04/17 12:29:59;;;;;;;3.33;1.63;;;17.80;88.60;;;;;;5072588;28;20205;-61
2022/04/17 12:32:27;;;;;;;3.50;1.70;;;17.70;91.80;;;;;;5072706;28;20259;-62
2022/04/17 12:35:00;;;;;;;1.97;1.10;;;17.60;89.30;;;;;;5073127;28;20254;-62
2022/04/17 12:37:29;;;;;;;1.43;1.07;;;17.50;79.90;;;;;;5071787;28;20221;-62
2022/04/17 12:40:11;;;;;;;2.60;1.50;;;17.60;83.90;;;;;;5072636;28;20208;-62
2022/04/17 12:42:40;;;;;;;1.87;1.40;;;17.40;82.40;;;;;;5070406;28;20625;-62
2022/04/17 12:45:09;;;;;;;4.17;1.77;;;17.50;87.90;;;;;;5072630;28;20209;-61
2022/04/17 12:47:38;;;;;;;4.77;1.80;;;17.70;88.80;;;;;;5071271;28;20588;-62
2022/04/17 12:50:06;;;;;;;4.00;1.70;;;17.80;90.20;;;;;;5072263;28;20295;-64
2022/04/17 12:52:33;;;;;;;3.60;1.50;;;17.90;91.20;;;;;;5071878;28;20229;-62
2022/04/17 12:55:08;;;;;;;2.47;1.77;;;17.70;89.20;;;;;;5072239;28;20213;-62
2022/04/17 12:57:35;;;;;;;2.07;1.67;;;17.80;91.40;;;;;;5071273;28;20224;-62
2022/04/17 13:00:14;;;;;;;2.43;1.40;;;17.60;84.00;;;;;;5072101;28;20209;-62
2022/04/17 13:02:41;;;;;;;2.97;1.73;;;17.60;85.10;;;;;;5071923;28;20675;-62
2022/04/17 13:05:08;;;;;;;3.10;1.90;;;17.70;88.60;;;;;;5071917;28;20212;-63
2022/04/17 13:07:37;;;;;;;1.67;1.30;;;17.60;89.00;;;;;;5071272;28;20668;-62
2022/04/17 13:10:06;;;;;;;2.20;1.70;;;17.60;89.70;;;;;;5071989;28;20209;-62